createdAt,value
2023-01-07T00:01:51.426Z,0.77
2023-01-07T00:06:54.555Z,0.80
2023-01-07T00:11:56.608Z,0.60
2023-01-07T00:16:58.685Z,0.60
2023-01-07T00:22:00.805Z,0.53
2023-01-07T00:27:02.990Z,0.50
2023-01-07T00:32:05.346Z,0.77
2023-01-07T00:37:26.331Z,0.43
2023-01-07T00:42:47.253Z,0.33
2023-01-07T00:47:53.491Z,0.43
2023-01-07T00:52:56.375Z,0.40
2023-01-07T00:57:58.815Z,0.43
2023-01-07T01:03:01.673Z,0.30
2023-01-07T01:08:04.021Z,0.37
2023-01-07T01:13:06.223Z,0.40
2023-01-07T01:18:08.379Z,0.30
2023-01-07T01:23:10.600Z,0.50
2023-01-07T01:28:12.913Z,0.20
2023-01-07T01:33:15.581Z,0.40
2023-01-07T01:38:18.511Z,0.20
2023-01-07T01:43:30.000Z,0.23
2023-01-07T01:48:34.155Z,0.30
2023-01-07T01:53:36.698Z,0.30
2023-01-07T01:59:00.243Z,0.30
2023-01-07T02:04:10.412Z,0.37
2023-01-07T02:09:13.444Z,0.23
2023-01-07T02:14:44.575Z,0.23
2023-01-07T02:20:34.693Z,0.40
2023-01-07T02:26:05.833Z,0.20
2023-01-07T02:31:22.750Z,0.20
2023-01-07T02:36:39.739Z,0.30
2023-01-07T02:41:56.886Z,0.20
2023-01-07T02:47:17.463Z,0.20
2023-01-07T02:52:28.284Z,0.20
2023-01-07T02:58:07.977Z,0.17
2023-01-07T03:03:13.317Z,0.20
2023-01-07T03:08:29.290Z,0.30
2023-01-07T03:13:43.056Z,0.20
2023-01-07T03:18:56.602Z,0.20
2023-01-07T03:23:58.823Z,0.30
2023-01-07T03:29:02.170Z,0.17
2023-01-07T03:34:09.415Z,0.10
2023-01-07T03:39:12.598Z,0.10
2023-01-07T03:44:15.850Z,0.10
2023-01-07T03:49:18.177Z,0.10
2023-01-07T03:54:21.594Z,0.20
2023-01-07T03:59:23.789Z,0.20
2023-01-07T04:04:26.077Z,0.20
2023-01-07T04:09:28.619Z,0.20
2023-01-07T04:14:31.305Z,0.20
2023-01-07T04:19:34.701Z,0.20
2023-01-07T04:24:37.001Z,0.27
2023-01-07T04:29:39.599Z,0.20
2023-01-07T04:34:42.357Z,0.20
2023-01-07T04:39:45.029Z,0.20
2023-01-07T04:44:48.027Z,0.40
2023-01-07T04:49:50.292Z,0.40
2023-01-07T04:54:53.085Z,0.40
2023-01-07T04:59:55.505Z,0.20
2023-01-07T05:04:57.870Z,0.40
2023-01-07T05:10:01.192Z,0.40
2023-01-07T05:15:06.682Z,0.20
2023-01-07T05:20:11.752Z,0.27
2023-01-07T05:25:15.082Z,0.30
2023-01-07T05:30:17.532Z,0.40
2023-01-07T05:35:20.758Z,0.50
2023-01-07T05:40:22.993Z,0.50
2023-01-07T05:45:25.246Z,0.57
2023-01-07T05:50:27.514Z,0.77
2023-01-07T05:55:29.669Z,0.50
2023-01-07T06:00:31.964Z,0.43
2023-01-07T06:05:34.077Z,0.60
2023-01-07T06:10:36.512Z,0.40
2023-01-07T06:15:38.724Z,0.40
2023-01-07T06:20:41.856Z,0.47
2023-01-07T06:25:43.899Z,0.43
2023-01-07T06:30:46.864Z,0.57
2023-01-07T06:35:49.015Z,0.47
2023-01-07T06:40:51.318Z,0.37
2023-01-07T06:45:54.081Z,0.33
2023-01-07T06:50:56.442Z,0.30
2023-01-07T06:55:58.574Z,0.40
2023-01-07T07:01:06.083Z,0.23
2023-01-07T07:06:08.294Z,0.50
2023-01-07T07:11:10.473Z,0.30
2023-01-07T07:16:12.609Z,0.33
2023-01-07T07:21:14.729Z,0.30
2023-01-07T07:26:17.111Z,0.37
2023-01-07T07:31:19.195Z,0.30
2023-01-07T07:36:21.251Z,0.50
2023-01-07T07:41:23.933Z,0.20
2023-01-07T07:46:26.047Z,0.87
2023-01-07T07:51:28.833Z,0.30
2023-01-07T07:56:30.893Z,0.10
2023-01-07T08:01:33.936Z,0.20
2023-01-07T08:06:37.389Z,0.20
2023-01-07T08:11:39.525Z,0.30
2023-01-07T08:16:41.758Z,0.30
2023-01-07T08:21:43.863Z,0.20
2023-01-07T08:26:45.943Z,0.20
2023-01-07T08:31:48.110Z,0.30
2023-01-07T08:36:50.745Z,0.20
2023-01-07T08:41:52.814Z,0.20
2023-01-07T08:46:55.124Z,0.20
2023-01-07T08:51:57.464Z,0.13
2023-01-07T08:56:59.620Z,0.20
2023-01-07T09:02:01.888Z,0.20
2023-01-07T09:07:04.051Z,0.30
2023-01-07T09:12:10.026Z,0.10
2023-01-07T09:17:13.197Z,0.20
2023-01-07T09:22:15.692Z,0.27
2023-01-07T09:27:18.141Z,0.67
2023-01-07T09:32:21.404Z,0.90
2023-01-07T09:37:23.712Z,0.50
2023-01-07T09:42:43.350Z,1.10
2023-01-07T09:47:48.257Z,1.83
2023-01-07T09:52:52.485Z,0.40
2023-01-07T09:57:54.945Z,0.60
2023-01-07T10:03:41.755Z,1.03
2023-01-07T10:08:56.079Z,1.03
2023-01-07T10:14:03.183Z,0.60
2023-01-07T10:19:22.530Z,0.60
2023-01-07T10:24:32.314Z,0.60
2023-01-07T10:29:36.630Z,0.60
2023-01-07T10:34:45.021Z,0.40
2023-01-07T10:40:13.199Z,0.70
2023-01-07T10:45:25.264Z,0.90
2023-01-07T10:50:33.467Z,0.80
2023-01-07T10:55:52.144Z,0.87
2023-01-07T11:00:54.426Z,0.60
2023-01-07T11:06:00.138Z,0.90
2023-01-07T11:11:03.793Z,0.70
2023-01-07T11:16:26.549Z,0.83
2023-01-07T11:21:42.879Z,0.60
2023-01-07T11:26:46.637Z,0.60
2023-01-07T11:31:53.269Z,0.70
2023-01-07T11:36:55.668Z,0.40
2023-01-07T11:42:23.562Z,0.40
2023-01-07T11:47:25.803Z,0.40
2023-01-07T11:52:28.342Z,0.52
2023-01-07T11:57:30.541Z,0.50
2023-01-07T12:02:32.998Z,0.47
2023-01-07T12:07:35.376Z,0.40
2023-01-07T12:12:43.172Z,0.50
2023-01-07T12:17:50.848Z,0.57
2023-01-07T12:23:13.011Z,0.20
2023-01-07T12:28:18.146Z,0.30
2023-01-07T12:33:31.242Z,0.60
2023-01-07T12:38:51.898Z,0.20
2023-01-07T12:44:00.014Z,0.27
2023-01-07T12:49:36.315Z,0.60
2023-01-07T12:55:17.540Z,0.20
2023-01-07T13:00:25.169Z,0.33
2023-01-07T13:05:37.796Z,0.20
2023-01-07T13:10:42.426Z,0.20
2023-01-07T13:15:44.681Z,0.13
2023-01-07T13:21:12.448Z,0.20
2023-01-07T13:26:27.013Z,1.80
2023-01-07T13:31:53.704Z,0.20
2023-01-07T13:37:11.353Z,0.20
2023-01-07T13:42:25.201Z,0.20
2023-01-07T13:47:43.050Z,0.20
2023-01-07T13:52:55.802Z,0.20
2023-01-07T13:57:58.250Z,0.50
2023-01-07T14:03:01.371Z,0.30
2023-01-07T14:08:04.095Z,0.20
2023-01-07T14:13:35.585Z,0.40
2023-01-07T14:19:03.645Z,0.57
2023-01-07T14:24:33.860Z,0.90
2023-01-07T14:29:42.253Z,0.23
2023-01-07T14:34:54.193Z,0.30
2023-01-07T14:39:57.068Z,0.37
2023-01-07T14:45:01.421Z,0.50
2023-01-07T14:50:28.740Z,0.30
2023-01-07T14:55:37.466Z,0.40
2023-01-07T15:01:04.638Z,0.30
2023-01-07T15:06:26.659Z,0.30
2023-01-07T15:11:49.067Z,0.53
2023-01-07T15:16:52.090Z,0.47
2023-01-07T15:21:54.459Z,1.33
2023-01-07T15:27:12.291Z,1.10
2023-01-07T15:32:41.996Z,0.40
2023-01-07T15:38:05.222Z,1.80
2023-01-07T15:43:22.569Z,0.60
2023-01-07T15:48:24.843Z,0.70
2023-01-07T15:53:29.150Z,0.50
2023-01-07T15:58:48.827Z,0.67
2023-01-07T16:03:56.057Z,0.70
2023-01-07T16:08:58.715Z,0.53
2023-01-07T16:14:02.712Z,0.60
2023-01-07T16:19:04.881Z,0.80
2023-01-07T16:24:07.596Z,1.00
2023-01-07T16:29:20.134Z,0.63
2023-01-07T16:34:25.215Z,1.00
2023-01-07T16:39:29.723Z,0.80
2023-01-07T16:44:49.445Z,1.07
2023-01-07T16:50:11.207Z,0.97
2023-01-07T16:55:45.870Z,1.17
2023-01-07T17:00:49.339Z,1.20
2023-01-07T17:06:06.606Z,1.37
2023-01-07T17:11:20.518Z,0.90
2023-01-07T17:16:28.013Z,1.30
2023-01-07T17:21:41.127Z,1.20
2023-01-07T17:26:43.508Z,1.10
2023-01-07T17:31:46.645Z,1.10
2023-01-07T17:36:48.990Z,1.07
2023-01-07T17:42:09.716Z,1.10
2023-01-07T17:47:14.056Z,1.47
2023-01-07T17:52:17.138Z,1.10
2023-01-07T17:57:19.658Z,1.17
2023-01-07T18:02:26.172Z,1.07
2023-01-07T18:07:28.390Z,1.13
2023-01-07T18:12:30.488Z,1.20
2023-01-07T18:17:33.859Z,1.50
2023-01-07T18:22:36.000Z,1.40
2023-01-07T18:27:38.348Z,1.47
2023-01-07T18:32:40.644Z,1.43
2023-01-07T18:37:43.182Z,1.80
2023-01-07T18:42:45.655Z,1.50
2023-01-07T18:47:47.862Z,1.20
2023-01-07T18:52:50.197Z,1.00
2023-01-07T18:57:52.487Z,1.30
2023-01-07T19:02:54.771Z,1.30
2023-01-07T19:07:57.323Z,1.30
2023-01-07T19:12:59.470Z,1.20
2023-01-07T19:18:01.548Z,1.50
2023-01-07T19:23:03.661Z,1.43
2023-01-07T19:28:05.994Z,1.30
2023-01-07T19:33:08.415Z,0.90
2023-01-07T19:38:12.764Z,1.40
2023-01-07T19:43:14.799Z,1.80
2023-01-07T19:48:16.884Z,1.90
2023-01-07T19:53:19.182Z,1.50
2023-01-07T19:58:21.624Z,1.40
2023-01-07T20:03:23.807Z,1.27
2023-01-07T20:08:26.148Z,1.20
2023-01-07T20:13:29.850Z,1.00
2023-01-07T20:18:35.880Z,1.57
2023-01-07T20:23:39.519Z,1.57
2023-01-07T20:28:42.836Z,1.50
2023-01-07T20:33:45.465Z,1.53
2023-01-07T20:38:48.149Z,1.23
2023-01-07T20:44:01.098Z,1.50
2023-01-07T20:49:03.407Z,1.30
2023-01-07T20:54:05.729Z,1.63
2023-01-07T20:59:08.772Z,1.30
2023-01-07T21:04:12.288Z,1.20
2023-01-07T21:09:15.317Z,1.67
2023-01-07T21:14:17.597Z,1.70
2023-01-07T21:19:21.036Z,1.90
2023-01-07T21:24:23.353Z,1.40
2023-01-07T21:29:25.599Z,1.83
2023-01-07T21:34:27.699Z,1.50
2023-01-07T21:39:30.005Z,1.20
2023-01-07T21:44:33.769Z,1.53
2023-01-07T21:49:35.962Z,1.60
2023-01-07T21:54:38.500Z,1.40
2023-01-07T21:59:40.840Z,1.50
2023-01-07T22:04:43.409Z,1.20
2023-01-07T22:09:45.916Z,1.60
2023-01-07T22:14:48.254Z,1.27
2023-01-07T22:19:50.424Z,1.43
2023-01-07T22:24:52.751Z,1.60
2023-01-07T22:29:56.068Z,1.43
2023-01-07T22:34:58.206Z,1.57
2023-01-07T22:40:02.479Z,1.60
2023-01-07T22:45:17.239Z,1.50
2023-01-07T22:50:19.557Z,1.53
2023-01-07T22:55:21.918Z,1.40
2023-01-07T23:00:52.385Z,1.43
2023-01-07T23:05:54.524Z,1.50
2023-01-07T23:10:56.679Z,1.60
2023-01-07T23:16:03.350Z,1.47
2023-01-07T23:21:05.932Z,1.30
2023-01-07T23:26:08.427Z,1.00
2023-01-07T23:31:11.296Z,1.07
2023-01-07T23:36:13.850Z,0.80
2023-01-07T23:41:16.159Z,0.93
2023-01-07T23:46:18.342Z,0.70
2023-01-07T23:51:21.453Z,0.77
2023-01-07T23:56:23.741Z,1.00
